Time;durP1;ratioP1;P1;durP2;ratioP2;P2;SDS_P1;SDS_P2;PMS_P1;PMS_P2;Temp;Humidity;BMP_temperature;BMP_pressure;BME280_temperature;BME280_humidity;BME280_pressure;Samples;Min_cycle;Max_cycle;Signal;HPM_P1;HPM_P2
2021/04/03 00:00:13;;;;;;;7.05;3.85;;;;;;;10.25;59.14;100878.34;5035564;28;20038;-63
2021/04/03 00:02:48;;;;;;;6.53;3.70;;;;;;;10.27;59.06;100872.38;5033852;28;20505;-63
2021/04/03 00:05:23;;;;;;;7.95;3.50;;;;;;;10.25;59.26;100871.44;5035782;28;20059;-63
2021/04/03 00:07:56;;;;;;;8.50;4.20;;;;;;;10.22;59.08;100871.34;5034443;28;20038;-63
2021/04/03 00:10:31;;;;;;;12.75;5.53;;;;;;;10.21;59.49;100886.00;5035556;28;20037;-63
2021/04/03 00:13:02;;;;;;;10.60;4.53;;;;;;;10.23;59.32;100872.22;5017644;28;20443;-63
2021/04/03 00:15:36;;;;;;;7.22;3.50;;;;;;;10.20;59.42;100873.88;5035157;28;20041;-63
2021/04/03 00:18:12;;;;;;;8.45;4.20;;;;;;;10.18;59.09;100865.19;5035504;28;20029;-63
2021/04/03 00:20:47;;;;;;;9.02;5.65;;;;;;;10.18;59.31;100875.56;5017787;28;20370;-63
2021/04/03 00:23:27;;;;;;;10.23;4.97;;;;;;;10.17;59.27;100873.78;5034179;28;20558;-63
2021/04/03 00:25:58;;;;;;;8.52;4.30;;;;;;;10.17;59.36;100872.94;5034932;28;20049;-63
2021/04/03 00:28:37;;;;;;;8.35;4.60;;;;;;;10.18;59.52;100859.16;5017776;28;20599;-63
2021/04/03 00:31:10;;;;;;;7.30;4.70;;;;;;;10.18;59.24;100860.00;5035020;28;20038;-63
2021/04/03 00:33:46;;;;;;;11.73;5.18;;;;;;;10.16;59.41;100860.81;5033556;28;20116;-63
2021/04/03 00:36:28;;;;;;;8.70;4.43;;;;;;;10.16;59.21;100855.63;5033679;28;20048;-63
2021/04/03 00:39:02;;;;;;;6.88;4.78;;;;;;;10.14;59.46;100855.56;5035192;28;20041;-63
2021/04/03 00:41:30;;;;;;;13.40;5.32;;;;;;;10.15;59.19;100853.88;5050643;28;20052;-63
2021/04/03 00:44:08;;;;;;;13.35;4.45;;;;;;;10.15;59.31;100851.28;5035016;28;20041;-63
2021/04/03 00:46:43;;;;;;;11.82;5.25;;;;;;;10.16;59.50;100846.13;5033808;28;20039;-63
2021/04/03 00:49:16;;;;;;;12.90;4.88;;;;;;;10.16;59.33;100851.31;5017452;28;20040;-63
2021/04/03 00:51:50;;;;;;;9.30;5.40;;;;;;;10.16;59.32;100847.84;5034645;28;20044;-63
2021/04/03 00:54:23;;;;;;;14.20;5.05;;;;;;;10.14;59.17;100831.38;5033520;28;20526;-63
2021/04/03 00:56:54;;;;;;;9.98;5.22;;;;;;;10.15;59.40;100836.59;5033366;28;20033;-63
2021/04/03 00:59:28;;;;;;;12.32;4.50;;;;;;;10.16;59.31;100834.91;5016582;28;20072;-63
2021/04/03 01:01:59;;;;;;;10.82;4.95;;;;;;;10.16;59.25;100837.50;5034180;28;20061;-63
2021/04/03 01:04:37;;;;;;;12.15;5.10;;;;;;;10.14;59.07;100840.00;5016946;28;20455;-63
2021/04/03 01:07:10;;;;;;;9.23;5.15;;;;;;;10.14;59.40;100833.97;5034439;28;20038;-63
2021/04/03 01:09:47;;;;;;;8.63;4.60;;;;;;;10.14;59.46;100837.44;5049829;28;20037;-63
2021/04/03 01:12:31;;;;;;;17.15;4.72;;;;;;;10.13;59.48;100832.22;5050050;28;20033;-63
2021/04/03 01:15:06;;;;;;;7.78;4.47;;;;;;;10.12;59.41;100831.31;5033171;28;20026;-63
2021/04/03 01:17:53;;;;;;;11.32;5.10;;;;;;;10.12;59.42;100838.22;5016530;28;20103;-63
2021/04/03 01:20:34;;;;;;;11.13;5.00;;;;;;;10.11;59.35;100832.19;5016282;28;20072;-63
2021/04/03 01:23:14;;;;;;;12.30;4.75;;;;;;;10.12;59.40;100833.03;5016159;28;20045;-63
2021/04/03 01:26:01;;;;;;;8.70;4.88;;;;;;;10.12;59.32;100833.03;5049227;28;20493;-63
2021/04/03 01:28:34;;;;;;;9.77;4.60;;;;;;;10.11;59.54;100831.28;5033395;28;20041;-63
2021/04/03 01:31:07;;;;;;;14.15;4.97;;;;;;;10.10;59.58;100837.28;5016358;28;20037;-63
2021/04/03 01:33:46;;;;;;;11.90;4.32;;;;;;;10.07;59.38;100832.91;5032819;28;20033;-63
2021/04/03 01:36:21;;;;;;;12.65;4.70;;;;;;;10.06;59.20;100839.78;5033798;28;20041;-63
2021/04/03 01:38:56;;;;;;;11.52;5.07;;;;;;;10.06;59.35;100831.16;5032190;28;20038;-63
2021/04/03 01:41:32;;;;;;;8.57;5.63;;;;;;;10.06;59.41;100828.56;5032822;28;20477;-63
2021/04/03 01:44:03;;;;;;;12.65;5.00;;;;;;;10.04;59.58;100828.50;5033472;28;20122;-63
2021/04/03 01:46:35;;;;;;;10.57;5.13;;;;;;;10.04;59.51;100827.63;5033831;28;20037;-63
2021/04/03 01:49:16;;;;;;;12.00;5.38;;;;;;;10.04;59.51;100830.22;5033858;28;20045;-63
2021/04/03 01:51:52;;;;;;;9.70;4.65;;;;;;;10.03;59.43;100831.06;5032763;28;20113;-63
2021/04/03 01:54:23;;;;;;;12.27;5.30;;;;;;;10.03;59.68;100825.88;5033788;28;20098;-63
2021/04/03 01:56:59;;;;;;;11.75;5.13;;;;;;;10.03;59.51;100831.06;5016030;28;20095;-63
2021/04/03 01:59:34;;;;;;;10.73;3.97;;;;;;;10.04;59.43;100830.22;5033296;28;20443;-63
2021/04/03 02:02:05;;;;;;;;;;;;;;;10.02;59.33;100834.47;5015860;28;20049;-63
2021/04/03 02:04:42;;;;;;;10.63;4.68;;;;;;;10.03;59.40;100837.13;5032423;28;19917;-63
2021/04/03 02:07:17;;;;;;;10.82;4.70;;;;;;;10.01;59.67;100836.19;5033478;28;20033;-63
2021/04/03 02:09:56;;;;;;;9.90;4.57;;;;;;;10.02;59.45;100829.28;5015810;28;20199;-63
2021/04/03 02:12:30;;;;;;;12.20;4.30;;;;;;;10.01;59.38;100828.44;5033413;28;20033;-63
2021/04/03 02:15:06;;;;;;;8.65;4.47;;;;;;;10.03;59.45;100828.47;5016084;28;20439;-63
2021/04/03 02:17:37;;;;;;;14.35;4.47;;;;;;;10.03;59.65;100829.34;5016292;28;20033;-63
2021/04/03 02:20:12;;;;;;;10.98;4.95;;;;;;;10.00;59.69;100829.25;5032188;28;20056;-63
2021/04/03 02:22:49;;;;;;;9.93;4.85;;;;;;;10.00;59.44;100828.34;5048540;28;20052;-63
2021/04/03 02:25:28;;;;;;;10.68;5.47;;;;;;;10.00;59.68;100828.34;5032531;28;20156;-63
2021/04/03 02:28:04;;;;;;;8.93;5.15;;;;;;;10.00;59.42;100828.34;5032533;28;20424;-63
2021/04/03 02:30:38;;;;;;;13.70;5.22;;;;;;;10.00;59.60;100829.25;5015636;28;20139;-63
2021/04/03 02:33:12;;;;;;;11.90;4.63;;;;;;;10.00;59.69;100821.47;5031693;28;20053;-63
2021/04/03 02:35:46;;;;;;;13.27;5.00;;;;;;;9.99;59.70;100827.50;5032563;28;20562;-63
2021/04/03 02:38:20;;;;;;;;;;;;;;;9.96;59.46;100827.38;5048910;28;20037;-63
2021/04/03 02:40:51;;;;;;;11.25;5.15;;;;;;;9.95;59.67;100836.00;5015261;28;19944;-63
2021/04/03 02:43:38;;;;;;;;;;;;;;;9.95;59.79;100836.00;5032127;28;20034;-63
2021/04/03 02:46:44;;;;;;;13.18;5.53;;;;;;;9.95;59.64;100843.75;5031702;28;19920;-63
2021/04/03 02:49:21;;;;;;;13.75;5.20;;;;;;;9.95;59.48;100841.16;5016786;28;20041;-63
2021/04/03 02:51:49;;;;;;;11.70;5.65;;;;;;;9.93;59.59;100848.00;5037098;28;20044;-63
2021/04/03 02:54:20;;;;;;;14.25;5.70;;;;;;;9.93;59.78;100845.41;5018882;28;20037;-63
2021/04/03 02:56:58;;;;;;;14.27;5.35;;;;;;;9.93;59.69;100844.56;5035950;28;20041;-63
2021/04/03 02:59:35;;;;;;;15.18;5.82;;;;;;;9.91;59.68;100847.06;5036873;28;20042;-63
2021/04/03 03:02:05;;;;;;;14.13;4.97;;;;;;;9.92;59.86;100861.78;5018914;28;20061;-63
2021/04/03 03:04:43;;;;;;;10.18;4.28;;;;;;;9.92;59.85;100859.19;5035155;28;20033;-63
2021/04/03 03:07:10;;;;;;;13.52;5.05;;;;;;;9.92;59.93;100854.00;5019350;28;20039;-63
2021/04/03 03:09:49;;;;;;;15.60;4.95;;;;;;;9.89;59.77;100854.81;5036554;28;20073;-63
2021/04/03 03:12:24;;;;;;;11.98;4.93;;;;;;;9.89;59.88;100851.31;5035284;28;20508;-63
2021/04/03 03:14:56;;;;;;;8.05;4.13;;;;;;;9.88;59.78;100850.47;5036415;28;20033;-63
2021/04/03 03:17:28;;;;;;;10.27;4.90;;;;;;;9.87;59.79;100859.06;5036739;28;20084;-63
2021/04/03 03:20:03;;;;;;;12.57;4.70;;;;;;;9.85;59.82;100852.94;5018685;28;20037;-63
2021/04/03 03:22:40;;;;;;;13.65;5.85;;;;;;;9.83;60.04;100856.31;5035411;28;20037;-63
2021/04/03 03:25:24;;;;;;;15.38;5.68;;;;;;;9.84;59.95;100845.13;5018852;28;20049;-63
2021/04/03 03:27:54;;;;;;;11.93;4.88;;;;;;;9.83;59.91;100852.00;5035010;28;20083;-63
2021/04/03 03:30:33;;;;;;;10.35;4.97;;;;;;;9.83;60.12;100852.00;5034731;28;20045;-63
2021/04/03 03:33:07;;;;;;;13.07;5.20;;;;;;;9.82;60.02;100855.44;5036277;28;20496;-63
2021/04/03 03:35:38;;;;;;;10.70;4.70;;;;;;;9.82;60.03;100849.38;5018381;28;20040;-63
2021/04/03 03:38:15;;;;;;;9.52;5.35;;;;;;;9.83;59.72;100852.00;5018115;28;20033;-63
2021/04/03 03:40:47;;;;;;;14.02;4.90;;;;;;;9.81;60.11;100848.47;5036329;28;20042;-63
2021/04/03 03:43:19;;;;;;;13.48;5.22;;;;;;;9.81;60.10;100847.63;5018394;28;20137;-63
2021/04/03 03:45:53;;;;;;;13.02;5.13;;;;;;;9.80;60.02;100851.94;5034604;28;20091;-63
2021/04/03 03:48:27;;;;;;;17.90;5.55;;;;;;;9.80;60.07;100851.03;5034694;28;20029;-63
2021/04/03 03:51:01;;;;;;;14.55;5.45;;;;;;;9.81;59.97;100851.06;5034946;28;20393;-63
2021/04/03 03:53:33;;;;;;;15.70;5.85;;;;;;;9.81;60.18;100850.22;5051303;28;20049;-63
2021/04/03 03:56:09;;;;;;;20.33;6.20;;;;;;;9.81;59.97;100847.63;5035938;28;20048;-63
2021/04/03 03:58:45;;;;;;;14.52;5.55;;;;;;;9.81;59.88;100845.91;5018076;28;20401;-63
2021/04/03 04:01:20;;;;;;;11.65;4.45;;;;;;;9.81;59.89;100845.91;5017384;28;20037;-63
2021/04/03 04:03:51;;;;;;;;;;;;;;;9.78;59.85;100848.41;5035020;28;20045;-63
2021/04/03 04:06:25;;;;;;;12.07;5.03;;;;;;;9.79;60.07;100844.09;5018583;28;19917;-63
2021/04/03 04:09:02;;;;;;;11.20;4.70;;;;;;;9.79;60.06;100844.09;5035606;28;20029;-63
2021/04/03 04:11:36;;;;;;;10.93;4.53;;;;;;;9.80;59.87;100853.63;5034308;28;20140;-63
2021/04/03 04:14:12;;;;;;;13.25;5.57;;;;;;;9.78;60.01;100848.41;5018404;28;20044;-63
2021/04/03 04:16:57;;;;;;;11.98;4.72;;;;;;;9.79;59.80;100846.69;5014809;28;20073;-63
2021/04/03 04:19:31;;;;;;;8.90;4.90;;;;;;;9.78;60.29;100850.09;5035404;28;20080;-63
2021/04/03 04:22:05;;;;;;;15.50;5.00;;;;;;;9.78;60.01;100848.41;5034135;28;20041;-63
2021/04/03 04:24:42;;;;;;;8.65;4.20;;;;;;;9.78;60.00;100842.34;5035805;28;20041;-63
2021/04/03 04:27:19;;;;;;;8.85;3.30;;;;;;;9.77;59.71;100843.16;5033928;28;20412;-63
2021/04/03 04:30:09;;;;;;;10.80;4.88;;;;;;;9.75;59.77;100849.19;5035031;28;20037;-63
2021/04/03 04:32:41;;;;;;;13.35;5.03;;;;;;;9.77;59.89;100864.78;5033698;28;20115;-63
2021/04/03 04:35:13;;;;;;;11.77;4.90;;;;;;;9.75;60.36;100859.53;5034374;28;20048;-63
2021/04/03 04:37:51;;;;;;;10.07;4.30;;;;;;;9.75;60.16;100858.66;5050845;28;20065;-63
2021/04/03 04:40:22;;;;;;;9.95;3.97;;;;;;;9.73;60.33;100866.34;5034809;28;20037;-63
2021/04/03 04:42:57;;;;;;;12.23;4.68;;;;;;;9.73;60.21;100873.25;5033748;28;20037;-63
2021/04/03 04:45:31;;;;;;;11.52;4.75;;;;;;;9.73;59.81;100876.72;5035134;28;20048;-63
2021/04/03 04:48:08;;;;;;;14.20;5.28;;;;;;;9.72;60.25;100887.94;5016759;28;20484;-63
2021/04/03 04:50:39;;;;;;;11.57;4.50;;;;;;;9.71;60.18;100888.75;5017043;28;20124;-63
2021/04/03 04:53:13;;;;;;;14.00;4.35;;;;;;;9.70;60.07;100888.69;5017153;28;20068;-63
2021/04/03 04:55:50;;;;;;;12.70;4.68;;;;;;;9.70;60.18;100899.94;5034862;28;20071;-63
2021/04/03 04:58:21;;;;;;;10.70;4.22;;;;;;;9.69;60.51;100897.28;5034990;28;20041;-63
2021/04/03 05:00:58;;;;;;;13.68;3.83;;;;;;;9.68;60.28;100898.09;5033208;28;20033;-63
2021/04/03 05:03:32;;;;;;;10.95;4.85;;;;;;;9.69;60.38;100897.28;5016625;28;20060;-63
2021/04/03 05:06:04;;;;;;;12.90;4.97;;;;;;;9.69;60.19;100905.03;5016655;28;20045;-63
2021/04/03 05:08:37;;;;;;;10.07;4.93;;;;;;;9.69;60.29;100912.81;5032996;28;20141;-63
2021/04/03 05:11:08;;;;;;;13.32;4.00;;;;;;;9.66;60.53;100916.19;5033261;28;20108;-63
2021/04/03 05:13:42;;;;;;;14.25;3.50;;;;;;;9.67;60.16;100909.28;5033805;28;20045;-63
2021/04/03 05:16:15;;;;;;;12.95;4.18;;;;;;;9.66;60.47;100913.59;5032991;28;20034;-63
2021/04/03 05:18:49;;;;;;;14.55;4.32;;;;;;;9.67;60.26;100917.06;5017007;28;20065;-63
2021/04/03 05:21:22;;;;;;;12.10;3.67;;;;;;;9.65;60.16;100922.19;5034514;28;20075;-63
2021/04/03 05:23:54;;;;;;;14.00;5.95;;;;;;;9.64;60.12;100923.00;5033175;28;20044;-63
2021/04/03 05:26:25;;;;;;;9.68;3.30;;;;;;;9.63;60.27;100921.25;5016491;28;20056;-63
2021/04/03 05:29:02;;;;;;;8.25;3.28;;;;;;;9.63;60.41;100910.91;5049647;28;20044;-63
2021/04/03 05:31:35;;;;;;;7.72;2.50;;;;;;;9.63;60.46;100925.56;5033716;28;20083;-63
2021/04/03 05:34:10;;;;;;;10.70;3.90;;;;;;;9.64;60.20;100928.19;5032934;28;20033;-63
2021/04/03 05:36:47;;;;;;;6.97;3.33;;;;;;;9.63;60.22;100929.03;5016121;28;20056;-63
2021/04/03 05:39:18;;;;;;;12.25;4.28;;;;;;;9.63;60.28;100936.78;5015908;28;20527;-63
2021/04/03 05:41:52;;;;;;;;;;;;;;;9.60;60.19;100940.16;5017273;28;20034;-63
2021/04/03 05:44:27;;;;;;;7.88;3.10;;;;;;;9.63;60.29;100935.91;5032719;28;19920;-63
2021/04/03 05:47:00;;;;;;;14.85;3.67;;;;;;;9.61;60.45;100935.84;5033742;28;20041;-63
2021/04/03 05:49:36;;;;;;;11.05;4.30;;;;;;;9.60;60.41;100931.50;5032700;28;20029;-63
2021/04/03 05:52:09;;;;;;;12.20;3.30;;;;;;;9.60;60.33;100923.72;5033268;28;20092;-63
2021/04/03 05:54:47;;;;;;;11.63;4.28;;;;;;;9.60;60.24;100929.81;5016244;28;20389;-63
2021/04/03 05:57:17;;;;;;;8.90;2.95;;;;;;;9.59;60.72;100934.91;5033556;28;20090;-63
2021/04/03 05:59:53;;;;;;;7.25;2.72;;;;;;;9.59;60.71;100938.41;5032569;28;20037;-63
2021/04/03 06:02:34;;;;;;;12.70;3.15;;;;;;;9.59;60.49;100940.97;5015498;28;20060;-63
2021/04/03 06:05:03;;;;;;;9.23;3.45;;;;;;;9.58;60.75;100946.97;5033995;28;20037;-63
2021/04/03 06:07:40;;;;;;;17.45;4.00;;;;;;;9.55;60.50;100939.09;5031874;28;20033;-63
2021/04/03 06:10:12;;;;;;;14.82;4.22;;;;;;;9.53;60.60;100943.34;5033519;28;20041;-63
2021/04/03 06:12:49;;;;;;;9.85;3.65;;;;;;;9.51;60.34;100946.72;5032102;28;20080;-63
2021/04/03 06:15:36;;;;;;;14.45;3.28;;;;;;;9.52;60.53;100962.28;5032334;28;20068;-63
2021/04/03 06:18:21;;;;;;;14.07;4.05;;;;;;;9.51;60.32;100951.91;5033614;28;20124;-63
2021/04/03 06:20:51;;;;;;;9.40;3.35;;;;;;;9.52;60.55;100954.53;5032074;28;20479;-63
2021/04/03 06:23:32;;;;;;;10.95;3.70;;;;;;;9.52;60.48;100961.41;5034247;28;20037;-63
2021/04/03 06:26:03;;;;;;;10.45;3.67;;;;;;;9.52;60.47;100966.59;5020155;28;20037;-63
2021/04/03 06:28:38;;;;;;;;;;;;;;;9.50;60.45;100968.25;5036793;28;20056;-64
2021/04/03 06:31:20;;;;;;;9.10;3.33;;;;;;;9.50;60.54;100968.25;5036279;28;19917;-63
2021/04/03 06:33:54;;;;;;;13.30;4.65;;;;;;;9.47;60.79;100961.25;5019562;28;20033;-63
2021/04/03 06:36:25;;;;;;;9.35;3.33;;;;;;;9.47;60.17;100966.44;5052727;28;20045;-63
2021/04/03 06:39:07;;;;;;;12.02;3.47;;;;;;;9.47;60.88;100966.44;5052100;28;20121;-63
2021/04/03 06:41:39;;;;;;;9.73;3.92;;;;;;;9.44;60.54;100969.78;5035687;28;20037;-63
2021/04/03 06:44:17;;;;;;;11.70;3.60;;;;;;;9.44;60.40;100963.75;5019275;28;20037;-63
2021/04/03 06:46:51;;;;;;;11.68;4.25;;;;;;;9.42;60.40;100971.44;5035869;28;20550;-63
2021/04/03 06:49:25;;;;;;;11.30;3.50;;;;;;;9.42;60.39;100979.19;5035738;28;20524;-63
2021/04/03 06:51:57;;;;;;;;;;;;;;;9.41;60.45;100987.81;5037132;28;20127;-63
2021/04/03 06:54:32;;;;;;;16.00;4.50;;;;;;;9.42;60.56;100986.09;5018943;28;19956;-63
2021/04/03 06:57:04;;;;;;;10.48;4.65;;;;;;;9.43;60.71;100986.13;5019864;28;20388;-63
2021/04/03 06:59:39;;;;;;;14.45;3.97;;;;;;;9.42;60.65;100992.13;5036057;28;20072;-63
2021/04/03 07:02:16;;;;;;;9.52;3.33;;;;;;;9.43;60.97;100987.84;5036770;28;20045;-63
2021/04/03 07:04:50;;;;;;;9.48;3.75;;;;;;;9.44;60.69;100987.88;5036605;28;20037;-63
2021/04/03 07:07:22;;;;;;;9.93;3.97;;;;;;;9.43;60.67;100993.03;5035214;28;20044;-63
2021/04/03 07:10:03;;;;;;;12.02;3.47;;;;;;;9.41;60.69;100998.16;5035505;28;20485;-63
2021/04/03 07:12:38;;;;;;;10.45;4.03;;;;;;;9.41;60.97;101003.34;5018655;28;20072;-63
2021/04/03 07:15:10;;;;;;;10.70;3.75;;;;;;;9.41;60.55;100995.56;5035466;28;20432;-63
2021/04/03 07:17:47;;;;;;;8.27;2.95;;;;;;;9.41;60.46;101000.75;5036258;28;20049;-63
2021/04/03 07:20:24;;;;;;;10.98;3.22;;;;;;;9.41;60.37;100997.25;5036872;28;20492;-63
2021/04/03 07:23:09;;;;;;;11.93;4.15;;;;;;;9.42;60.61;101012.81;5035466;28;20045;-63
2021/04/03 07:25:44;;;;;;;9.25;3.67;;;;;;;9.39;60.67;101010.16;5036280;28;20185;-63
2021/04/03 07:28:18;;;;;;;9.02;3.50;;;;;;;9.39;60.73;101014.44;5034830;28;20041;-63
2021/04/03 07:30:54;;;;;;;9.75;4.00;;;;;;;9.38;60.95;101021.31;5035462;28;20090;-63
2021/04/03 07:33:31;;;;;;;7.75;3.15;;;;;;;9.38;60.68;101016.16;5018559;28;20094;-63
2021/04/03 07:36:09;;;;;;;10.75;3.92;;;;;;;9.36;60.67;101012.63;5035402;28;20063;-63
2021/04/03 07:38:43;;;;;;;15.48;3.80;;;;;;;9.36;61.03;101010.03;5034908;28;20112;-63
2021/04/03 07:41:21;;;;;;;;;;;;;;;9.34;60.64;101005.66;5035323;28;20075;-63
2021/04/03 07:43:53;;;;;;;12.23;3.63;;;;;;;9.35;60.74;101012.53;5035073;28;19913;-63
2021/04/03 07:46:40;;;;;;;11.80;4.65;;;;;;;9.34;60.77;101016.84;5034757;28;20038;-63
2021/04/03 07:49:13;;;;;;;8.32;3.53;;;;;;;9.34;60.92;101018.56;5017861;28;20431;-63
2021/04/03 07:51:52;;;;;;;10.23;3.80;;;;;;;9.34;60.91;101023.75;5035932;28;20072;-63
2021/04/03 07:54:32;;;;;;;9.40;3.35;;;;;;;9.31;60.84;101021.91;5036044;28;20095;-63
2021/04/03 07:57:10;;;;;;;13.80;4.03;;;;;;;9.29;60.78;101023.56;5035895;28;20049;-63
2021/04/03 07:59:46;;;;;;;11.85;3.45;;;;;;;9.28;60.76;101021.78;5034102;28;20033;-63
2021/04/03 08:02:19;;;;;;;12.68;4.30;;;;;;;9.30;60.66;101014.97;5017567;28;20098;-63
2021/04/03 08:04:56;;;;;;;8.70;3.67;;;;;;;9.29;60.65;101019.28;5034375;28;20048;-63
2021/04/03 08:07:33;;;;;;;11.00;4.22;;;;;;;9.30;60.91;101017.56;5034134;28;20504;-63
2021/04/03 08:10:17;;;;;;;13.88;4.45;;;;;;;9.29;60.60;101028.72;5035591;28;20046;-63
2021/04/03 08:12:48;;;;;;;10.38;3.78;;;;;;;9.30;61.04;101025.31;5017568;28;20038;-63
2021/04/03 08:15:26;;;;;;;19.23;4.95;;;;;;;9.28;61.00;101030.44;5017615;28;20041;-63
2021/04/03 08:17:55;;;;;;;8.85;3.65;;;;;;;9.28;60.96;101033.03;5035501;28;20037;-63
2021/04/03 08:20:22;;;;;;;9.63;3.97;;;;;;;9.30;60.85;101040.84;5050312;28;20044;-63
2021/04/03 08:23:03;;;;;;;9.73;3.60;;;;;;;9.29;60.88;101034.81;5034119;28;20040;-63
2021/04/03 08:25:38;;;;;;;13.10;4.85;;;;;;;9.32;60.82;101043.50;5034119;28;20034;-63
2021/04/03 08:28:20;;;;;;;93.53;56.80;;;;;;;9.34;60.72;101047.91;5017470;28;20036;-63
2021/04/03 08:30:51;;;;;;;151.35;99.00;;;;;;;9.38;60.92;101044.63;5032517;28;20040;-63
2021/04/03 08:33:22;;;;;;;167.77;107.45;;;;;;;9.41;60.79;101041.25;5033484;28;20041;-63
2021/04/03 08:35:59;;;;;;;230.50;159.38;;;;;;;9.42;61.06;101041.28;5017409;28;20520;-63
2021/04/03 08:38:30;;;;;;;182.68;122.38;;;;;;;9.49;61.23;101041.53;5034969;28;20036;-63
2021/04/03 08:41:04;;;;;;;222.65;145.57;;;;;;;9.54;60.82;101050.34;5035050;28;20124;-63
2021/04/03 08:43:40;;;;;;;223.38;144.23;;;;;;;9.60;61.16;101063.50;5033972;28;20412;-63
2021/04/03 08:46:15;;;;;;;196.02;126.35;;;;;;;9.64;61.08;101062.78;5033220;28;20029;-63
2021/04/03 08:49:04;;;;;;;187.40;121.63;;;;;;;9.68;60.77;101053.41;5034376;28;20061;-63
2021/04/03 08:51:41;;;;;;;170.73;107.20;;;;;;;9.70;60.82;101052.66;5033133;28;20037;-63
2021/04/03 08:54:17;;;;;;;158.07;105.90;;;;;;;9.72;60.71;101056.19;5033875;28;20091;-63
2021/04/03 08:56:49;;;;;;;109.35;73.13;;;;;;;9.74;60.71;101053.66;5034688;28;20033;-63
2021/04/03 08:59:22;;;;;;;134.48;88.18;;;;;;;9.75;60.52;101053.69;5016284;28;20527;-63
2021/04/03 09:01:54;;;;;;;125.57;79.55;;;;;;;9.78;60.80;101064.97;5033875;28;20052;-63
2021/04/03 09:04:23;;;;;;;122.00;81.47;;;;;;;9.79;61.02;101061.56;5034262;28;20042;-63
2021/04/03 09:06:58;;;;;;;109.05;67.32;;;;;;;9.78;60.69;101063.28;5033453;28;20075;-63
2021/04/03 09:09:31;;;;;;;102.32;60.28;;;;;;;9.74;60.40;101059.69;5033527;28;20033;-63
2021/04/03 09:12:03;;;;;;;86.05;51.63;;;;;;;9.69;60.53;101061.25;5033981;28;20133;-62
2021/04/03 09:14:54;;;;;;;67.35;40.83;;;;;;;9.67;60.38;101065.50;5032848;28;20037;-63
2021/04/03 09:17:23;;;;;;;50.55;30.58;;;;;;;9.67;60.34;101067.19;5029328;28;20053;-63
2021/04/03 09:20:07;;;;;;;45.65;21.67;;;;;;;9.65;60.59;101072.31;5032991;28;20144;-63
2021/04/03 09:22:41;;;;;;;34.40;12.27;;;;;;;9.57;60.28;101078.94;5031920;28;20033;-63
2021/04/03 09:25:09;;;;;;;38.03;14.52;;;;;;;9.53;60.47;101085.69;5015620;28;20041;-63
2021/04/03 09:27:46;;;;;;;31.27;11.90;;;;;;;9.50;60.42;101079.53;5015951;28;20033;-63
2021/04/03 09:30:13;;;;;;;23.63;9.52;;;;;;;9.49;60.67;101083.81;5032381;28;20037;-63
2021/04/03 09:32:53;;;;;;;31.55;9.90;;;;;;;9.51;60.57;101079.56;5048507;28;20041;-63
2021/04/03 09:35:31;;;;;;;24.85;9.95;;;;;;;9.52;60.47;101083.06;5033908;28;20503;-63
2021/04/03 09:38:04;;;;;;;28.02;10.88;;;;;;;9.54;60.51;101081.41;5049613;28;20112;-63
2021/04/03 09:40:52;;;;;;;28.65;10.60;;;;;;;9.54;60.46;101082.28;5032990;28;20041;-63
2021/04/03 09:43:38;;;;;;;27.40;11.10;;;;;;;9.55;60.69;101072.81;5032629;28;20049;-63
2021/04/03 09:46:04;;;;;;;25.33;9.88;;;;;;;9.58;60.92;101088.44;5034030;28;20042;-63
2021/04/03 09:48:29;;;;;;;32.28;11.25;;;;;;;9.59;60.63;101090.19;5033921;28;20034;-63
2021/04/03 09:51:00;;;;;;;19.10;9.93;;;;;;;9.58;60.63;101084.16;5033650;28;20037;-63
2021/04/03 09:53:34;;;;;;;30.75;11.50;;;;;;;9.58;60.55;101084.16;5016005;28;20072;-63
2021/04/03 09:56:05;;;;;;;;;;;;;;;9.57;60.65;101091.88;5033013;28;20056;-63
2021/04/03 09:58:41;;;;;;;20.83;10.45;;;;;;;9.58;60.55;101076.38;5015983;28;19920;-64
2021/04/03 10:01:12;;;;;;;21.10;10.07;;;;;;;9.58;60.48;101071.22;5032487;28;20454;-64
2021/04/03 10:03:43;;;;;;;26.45;12.88;;;;;;;9.60;60.47;101071.25;5015981;28;20437;-64
2021/04/03 10:06:16;;;;;;;39.70;18.10;;;;;;;9.62;60.62;101066.16;5033770;28;20087;-63
2021/04/03 10:08:51;;;;;;;41.45;22.95;;;;;;;9.62;60.81;101066.16;5032347;28;20292;-63
2021/04/03 10:11:22;;;;;;;50.95;23.92;;;;;;;9.63;60.65;101066.19;5031821;28;20040;-64
2021/04/03 10:13:56;;;;;;;52.13;24.33;;;;;;;9.63;60.73;101067.91;5034165;28;20393;-63
2021/04/03 10:16:30;;;;;;;60.70;33.60;;;;;;;9.63;60.84;101068.78;5016045;28;20080;-63
2021/04/03 10:19:02;;;;;;;94.88;45.30;;;;;;;9.65;60.40;101063.69;5032349;28;20508;-63
2021/04/03 10:21:32;;;;;;;116.95;56.63;;;;;;;9.65;60.43;101068.84;5033151;28;20041;-63
2021/04/03 10:24:12;;;;;;;112.05;51.70;;;;;;;9.65;60.82;101069.72;5033070;28;20382;-63
2021/04/03 10:26:48;;;;;;;110.78;50.50;;;;;;;9.66;60.49;101068.00;5032177;28;20554;-63
2021/04/03 10:29:16;;;;;;;110.25;51.55;;;;;;;9.66;60.93;101073.19;5032163;28;20040;-63
2021/04/03 10:31:49;;;;;;;100.68;48.40;;;;;;;9.66;60.57;101073.19;5033198;28;20098;-63
2021/04/03 10:34:23;;;;;;;111.87;54.23;;;;;;;9.67;60.62;101067.19;5032112;28;20041;-63
2021/04/03 10:36:57;;;;;;;241.02;115.30;;;;;;;9.65;60.53;101071.44;5015314;28;20485;-64
2021/04/03 10:39:25;;;;;;;;;;;;;;;9.65;60.53;101066.28;5032405;28;20128;-64
2021/04/03 10:41:59;;;;;;;301.63;143.18;;;;;;;9.64;60.57;101067.97;5032752;28;19917;-63
2021/04/03 10:44:33;;;;;;;308.65;144.75;;;;;;;9.67;60.48;101062.00;5015168;28;20041;-63
2021/04/03 10:47:09;;;;;;;418.05;197.95;;;;;;;9.66;60.46;101055.97;5033396;28;20040;-64
2021/04/03 10:49:43;;;;;;;358.27;167.73;;;;;;;9.66;60.70;101061.13;5015832;28;20038;-63
2021/04/03 10:52:19;;;;;;;;;;;;;;;9.65;60.71;101068.84;5033687;28;20041;-63
2021/04/03 10:54:50;;;;;;;315.63;140.10;;;;;;;9.65;60.91;101061.97;5015538;28;20004;-64
2021/04/03 10:57:30;;;;;;;372.50;168.55;;;;;;;9.65;60.72;101064.56;5015302;28;20053;-63
2021/04/03 11:00:02;;;;;;;356.30;154.35;;;;;;;9.65;60.70;101067.13;5032636;28;20385;-63
2021/04/03 11:02:36;;;;;;;330.83;147.70;;;;;;;9.66;60.74;101062.81;5015235;28;20050;-64
2021/04/03 11:05:05;;;;;;;330.98;148.32;;;;;;;9.66;60.64;101068.91;5032597;28;20083;-64
2021/04/03 11:07:39;;;;;;;338.80;142.75;;;;;;;9.66;60.62;101063.72;5032315;28;20037;-64
2021/04/03 11:10:12;;;;;;;330.45;138.65;;;;;;;9.66;60.93;101070.59;5016376;28;20052;-63
2021/04/03 11:12:44;;;;;;;296.20;126.13;;;;;;;9.67;60.79;101070.66;5019365;28;20041;-64
2021/04/03 11:15:16;;;;;;;267.90;116.35;;;;;;;9.67;60.80;101070.66;5036846;28;20497;-64
2021/04/03 11:17:53;;;;;;;392.13;179.85;;;;;;;9.67;60.65;101068.09;5035215;28;20033;-64
2021/04/03 11:20:21;;;;;;;566.95;256.40;;;;;;;9.67;60.85;101056.81;5018908;28;20122;-63
2021/04/03 11:22:52;;;;;;;457.45;205.65;;;;;;;9.67;60.61;101069.78;5036337;28;20039;-64
2021/04/03 11:25:25;;;;;;;507.73;233.40;;;;;;;9.67;60.92;101060.31;5018704;28;20041;-64
2021/04/03 11:27:59;;;;;;;502.92;230.68;;;;;;;9.67;60.85;101062.00;5036525;28;20108;-64
2021/04/03 11:30:30;;;;;;;482.42;219.50;;;;;;;9.68;60.85;101056.00;5036065;28;20049;-64
2021/04/03 11:33:06;;;;;;;494.10;232.10;;;;;;;9.68;60.76;101058.59;5019002;28;20061;-64
2021/04/03 11:35:36;;;;;;;488.50;228.52;;;;;;;9.69;60.63;101060.34;5036403;28;20092;-64
2021/04/03 11:38:07;;;;;;;466.55;219.60;;;;;;;9.70;61.06;101056.94;5036124;28;20044;-64
2021/04/03 11:40:38;;;;;;;501.02;245.00;;;;;;;9.69;60.72;101056.06;5034871;28;20065;-64
2021/04/03 11:43:09;;;;;;;536.50;289.15;;;;;;;9.70;60.85;101056.94;5036111;28;20087;-63
2021/04/03 11:45:46;;;;;;;564.70;313.92;;;;;;;9.70;60.67;101051.75;5036464;28;20469;-64
2021/04/03 11:48:14;;;;;;;558.17;315.10;;;;;;;9.71;60.95;101053.53;5035778;28;20380;-64
2021/04/03 11:50:48;;;;;;;498.70;271.05;;;;;;;9.70;60.98;101055.25;5035795;28;20044;-64
2021/04/03 11:53:22;;;;;;;471.30;250.13;;;;;;;9.69;60.76;101069.03;5034965;28;20034;-64
2021/04/03 11:55:56;;;;;;;467.83;252.20;;;;;;;9.69;60.80;101074.19;5035775;28;20044;-64
2021/04/03 11:58:27;;;;;;;;;;;;;;;9.68;60.67;101063.78;5052213;28;20029;-64